Gaylord, MI (49734)

9:51 PM EST on February 21, 2017 (GMT -0500)
Pine Briar | | Change Station

Elev 1302 ft 45.02 °N, 84.71 °W | Updated 20 seconds ago

Clear
Clear
34.2 °F
Feels Like 34 °F
N
0.0
Wind Variable Wind from ESE

Today
High -- | Low -- °F
--% Chance of Precip.
Yesterday
High -- | Low -- °F
Precip. -- in
Pressure 29.88 in
Visibility 10.0 miles
Clouds Clear
Windchill 34 °F
Dew Point 31 °F
Humidity 91%
Rainfall 0.17 in
Snow Depth Not available.
7:29 AM 6:15 PM
Waning Crescent, 21% visible
METAR KGLR 220153Z AUTO 19003KT 10SM CLR 04/M01 A2985 RMK AO2 SLP116 T00441006
Pressure 29.88 in
Visibility 10.0 miles
Clouds Clear
Windchill 34 °F
Dew Point 31 °F
Humidity 91%
Rainfall 0.17 in
Snow Depth Not available.
7:29 AM 6:15 PM
Waning Crescent, 21% visible
METAR KGLR 220153Z AUTO 19003KT 10SM CLR 04/M01 A2985 RMK AO2 SLP116 T00441006

Get Your Daily Forecast Email!

Thanks for signing up!

Be on the lookout for a verification email in your inbox.

You'll start receiving the daily forecast at 8 AM.

×

10-Day Weather Forecast

Almanac

Astronomy

Feb. 21, 2017 Rise Set
Actual Time
Civil Twilight
Nautical Twilight
Astronomical Twilight
Moon
Length of Visible Light
Length of Day
Tomorrow will be .
, % of the Moon is Illuminated

Today's Extremes

State Highs State Lows

Community

WunderPhotos

Upload Photos

1,962,540 photos uploaded!

WunderBlog® & News

Nearby

Air Quality

  Air Quality AQ Index Pollutant
Not available.

Snow Depth

Station Depth Elevation

Earthquake Activity

City Distance Mag. Time & Date
Minimum magnitude displayed is 2.5.

Coastal Water Temperatures

Place Temperature

Stations

Nearby Weather Stations

Station Location Temp. Windchill Dew Point Humidity Wind Precip. Elev Updated Type
                   

Watches & Warnings

There are currently no watches in effect.